Kezdőlap
METAR-TAF:

METAR-TAF

Repülőterek :

Belgorod, Oroszország

földrajzi szélesség: 50-38-36N, földrajzi hosszúság: 036-35-24E, magasság: 224 m

Jelenlegi meteorológiai megfigyelések

A jelentés 30 perccel ezelõtt készült, 09:30 UTC
Délkeleti szél 14 kt
Hőmérséklet 0°C
Páratartalom 93%
Légköri nyomás 1016 hPa
Látótávolság 10 km, vagy több
Szakadozott felhőzet 800 lábon

METAR: UUOB 130930Z 13007MPS 9999 BKN008 M00/M01 Q1016 R11/190057 NOSIG

Idő: 13:00 (10:00 UTC)

Előrejelzés

A jelentés 2 órával és 0 perccel ezelõtt készült, 08:00 UTC
Az előrejelzés 13-én 09 óra UTC és 13-én 18 óra UTC között érvényes
Délkeleti szél 16 kt széllökések: 25 kt
Látótávolság: 5000 m
Szakadozott felhőzet 1100 lábon
Párásság

TAF: UUOB 130800Z 1309/1318 13008G13MPS 5000 BR BKN011

Meteorológiai megfigyelések és előrejelzések több, mint 4000 repülőtéren (METAR és TAF jelentéseket).

A térképen piros és sárga pontok jelzik az elérhető meteorológiai állomásokat.

Mozgassa az egeret a pont fölött, hogy megjelenjen az állomás neve.

Azután kattintson az időjárási megfigyelések és előrejelzések megtekintéséhez.

A térkép megváltoztatása: kattintson a fekete keresztel jelölt zöld gombra ráközelítéshez, a vonallal jelölt zöld gombra távolításhoz, vagy a zöld nyilakra a szomszédos térképek eléréséhez.


METAR-TAF: